createdAt,value
2022-12-06T00:07:26.848Z,15.23
2022-12-06T00:17:28.433Z,15.17
2022-12-06T00:27:29.964Z,15.08
2022-12-06T00:37:31.420Z,15.03
2022-12-06T00:47:32.842Z,15.13
2022-12-06T00:57:34.471Z,15.24
2022-12-06T01:07:36.345Z,15.42
2022-12-06T01:17:38.290Z,15.57
2022-12-06T01:27:39.679Z,15.71
2022-12-06T01:37:41.248Z,15.80
2022-12-06T01:47:43.242Z,15.92
2022-12-06T01:57:44.770Z,16.00
2022-12-06T02:07:46.324Z,16.10
2022-12-06T02:17:50.225Z,16.17
2022-12-06T02:27:57.498Z,16.21
2022-12-06T02:38:03.326Z,16.17
2022-12-06T02:48:04.939Z,16.10
2022-12-06T02:58:06.361Z,16.02
2022-12-06T03:08:12.968Z,15.94
2022-12-06T03:18:19.991Z,15.90
2022-12-06T03:28:21.413Z,15.80
2022-12-06T03:38:35.606Z,15.70
2022-12-06T03:48:40.516Z,15.62
2022-12-06T03:58:41.959Z,15.56
2022-12-06T04:08:43.362Z,15.52
2022-12-06T04:18:44.899Z,15.43
2022-12-06T04:29:04.980Z,15.38
2022-12-06T04:39:06.449Z,15.31
2022-12-06T04:49:07.906Z,15.28
2022-12-06T04:59:09.316Z,15.29
2022-12-06T05:09:11.289Z,15.42
2022-12-06T05:19:13.267Z,15.58
2022-12-06T05:29:14.668Z,15.78
2022-12-06T05:39:16.675Z,15.97
2022-12-06T05:49:18.101Z,16.14
2022-12-06T05:59:26.054Z,16.28
2022-12-06T06:09:29.731Z,16.41
2022-12-06T06:19:31.114Z,16.51
2022-12-06T06:29:32.494Z,16.60
2022-12-06T06:39:33.860Z,16.67
2022-12-06T06:49:35.254Z,16.74
2022-12-06T06:59:38.853Z,16.79
2022-12-06T07:09:40.230Z,16.87
2022-12-06T07:19:41.757Z,16.92
2022-12-06T07:29:43.220Z,16.99
2022-12-06T07:39:44.681Z,17.06
2022-12-06T07:49:46.188Z,17.09
2022-12-06T07:59:47.552Z,17.17
2022-12-06T08:09:49.082Z,17.21
2022-12-06T08:19:51.071Z,17.27
2022-12-06T08:29:52.484Z,17.33
2022-12-06T08:39:53.860Z,17.35
2022-12-06T08:49:55.277Z,17.39
2022-12-06T08:59:56.678Z,17.44
2022-12-06T09:09:58.316Z,17.49
2022-12-06T09:20:05.582Z,17.52
2022-12-06T09:30:08.122Z,17.55
2022-12-06T09:40:14.074Z,17.59
2022-12-06T09:50:44.019Z,17.60
2022-12-06T10:00:48.512Z,17.67
2022-12-06T10:10:57.389Z,17.69
2022-12-06T10:21:02.270Z,17.73
2022-12-06T10:31:22.871Z,17.77
2022-12-06T10:41:30.320Z,17.78
2022-12-06T10:51:39.417Z,17.82
2022-12-06T11:01:43.785Z,17.87
2022-12-06T11:11:45.245Z,17.90
2022-12-06T11:21:53.264Z,17.92
2022-12-06T11:32:02.545Z,17.92
2022-12-06T11:42:04.164Z,17.95
2022-12-06T11:52:43.520Z,18.02
2022-12-06T12:02:45.862Z,18.08
2022-12-06T12:13:06.549Z,18.07
2022-12-06T12:23:19.670Z,18.12
2022-12-06T12:33:22.894Z,18.15
2022-12-06T12:43:30.672Z,18.20
2022-12-06T12:53:36.807Z,18.25
2022-12-06T13:03:53.641Z,18.26
2022-12-06T13:13:55.412Z,18.23
2022-12-06T13:24:12.073Z,18.10
2022-12-06T13:34:24.284Z,17.98
2022-12-06T13:44:42.110Z,17.93
2022-12-06T13:54:43.514Z,17.83
2022-12-06T14:04:44.892Z,17.72
2022-12-06T14:15:00.020Z,17.59
2022-12-06T14:25:20.904Z,17.47
2022-12-06T14:35:30.422Z,17.34
2022-12-06T14:45:33.359Z,17.22
2022-12-06T14:55:36.350Z,17.14
2022-12-06T15:05:42.026Z,17.01
2022-12-06T15:15:45.054Z,16.94
2022-12-06T15:25:46.517Z,16.84
2022-12-06T15:35:53.400Z,16.74
2022-12-06T15:45:55.079Z,16.67
2022-12-06T15:55:56.931Z,16.56
2022-12-06T16:05:58.317Z,16.46
2022-12-06T16:15:59.753Z,16.39
2022-12-06T16:26:01.203Z,16.32
2022-12-06T16:36:12.802Z,16.19
2022-12-06T16:46:21.452Z,16.09
2022-12-06T16:56:23.271Z,16.02
2022-12-06T17:06:25.088Z,15.99
2022-12-06T17:16:27.268Z,15.93
2022-12-06T17:26:29.117Z,15.91
2022-12-06T17:36:31.125Z,15.84
2022-12-06T17:46:32.609Z,15.81
2022-12-06T17:56:35.671Z,15.73
2022-12-06T18:06:38.687Z,15.65
2022-12-06T18:16:41.851Z,15.64
2022-12-06T18:26:43.300Z,15.59
2022-12-06T18:36:44.689Z,15.56
2022-12-06T18:46:46.256Z,15.47
2022-12-06T18:56:47.668Z,15.43
2022-12-06T19:06:49.235Z,15.39
2022-12-06T19:16:51.089Z,15.35
2022-12-06T19:26:53.146Z,15.31
2022-12-06T19:36:54.720Z,15.27
2022-12-06T19:46:56.122Z,15.24
2022-12-06T19:56:58.531Z,15.18
2022-12-06T20:07:00.192Z,15.15
2022-12-06T20:17:02.640Z,15.10
2022-12-06T20:27:04.187Z,15.09
2022-12-06T20:37:05.936Z,15.04
2022-12-06T20:47:07.584Z,15.01
2022-12-06T20:57:09.174Z,14.97
2022-12-06T21:07:10.702Z,14.95
2022-12-06T21:17:12.073Z,15.05
2022-12-06T21:27:13.636Z,15.32
2022-12-06T21:37:15.400Z,15.55
2022-12-06T21:47:17.444Z,15.75
2022-12-06T21:57:19.010Z,15.94
2022-12-06T22:07:20.489Z,16.07
2022-12-06T22:17:22.060Z,16.22
2022-12-06T22:27:23.607Z,16.34
2022-12-06T22:37:28.521Z,16.43
2022-12-06T22:47:30.310Z,16.41
2022-12-06T22:57:31.903Z,16.37
2022-12-06T23:07:33.775Z,16.31
2022-12-06T23:17:36.025Z,16.25
2022-12-06T23:27:37.624Z,16.17
2022-12-06T23:37:39.482Z,16.13
2022-12-06T23:47:40.848Z,16.03
2022-12-06T23:57:42.259Z,15.96
